sensor_id;sensor_type;location;lat;lon;timestamp;temperature;humidity
33739;DHT22;20063;51.730;11.110;2024-01-11T00:02:19;-8.20;99.90
33739;DHT22;20063;51.730;11.110;2024-01-11T00:04:45;-8.20;99.90
33739;DHT22;20063;51.730;11.110;2024-01-11T00:07:10;-8.20;99.90
33739;DHT22;20063;51.730;11.110;2024-01-11T00:09:42;-8.20;99.90
33739;DHT22;20063;51.730;11.110;2024-01-11T00:12:08;-8.20;99.90
33739;DHT22;20063;51.730;11.110;2024-01-11T00:14:35;-8.10;99.90
33739;DHT22;20063;51.730;11.110;2024-01-11T00:17:00;-8.10;99.90
33739;DHT22;20063;51.730;11.110;2024-01-11T00:19:26;-8.10;99.90
33739;DHT22;20063;51.730;11.110;2024-01-11T00:21:52;-8.10;99.90
33739;DHT22;20063;51.730;11.110;2024-01-11T00:24:20;-8.10;99.90
33739;DHT22;20063;51.730;11.110;2024-01-11T00:26:46;-8.10;99.90
33739;DHT22;20063;51.730;11.110;2024-01-11T00:29:11;-8.10;99.90
33739;DHT22;20063;51.730;11.110;2024-01-11T00:31:37;-8.10;99.90
33739;DHT22;20063;51.730;11.110;2024-01-11T00:34:04;-8.10;99.90
33739;DHT22;20063;51.730;11.110;2024-01-11T00:36:29;-8.10;99.90
33739;DHT22;20063;51.730;11.110;2024-01-11T00:38:55;-8.20;99.90
33739;DHT22;20063;51.730;11.110;2024-01-11T00:41:21;-8.10;99.90
33739;DHT22;20063;51.730;11.110;2024-01-11T00:43:47;-8.20;99.90
33739;DHT22;20063;51.730;11.110;2024-01-11T00:46:13;-8.20;99.90
33739;DHT22;20063;51.730;11.110;2024-01-11T00:48:38;-8.20;99.90
33739;DHT22;20063;51.730;11.110;2024-01-11T00:51:05;-8.20;99.90
33739;DHT22;20063;51.730;11.110;2024-01-11T00:53:31;-8.20;99.90
33739;DHT22;20063;51.730;11.110;2024-01-11T00:55:58;-8.10;99.90
33739;DHT22;20063;51.730;11.110;2024-01-11T00:58:23;-8.10;99.90
33739;DHT22;20063;51.730;11.110;2024-01-11T01:00:49;-8.10;99.90
33739;DHT22;20063;51.730;11.110;2024-01-11T01:03:15;-8.10;99.90
33739;DHT22;20063;51.730;11.110;2024-01-11T01:05:41;-8.10;99.90
33739;DHT22;20063;51.730;11.110;2024-01-11T01:08:07;-8.20;99.90
33739;DHT22;20063;51.730;11.110;2024-01-11T01:10:33;-8.10;99.90
33739;DHT22;20063;51.730;11.110;2024-01-11T01:12:59;-8.10;99.90
33739;DHT22;20063;51.730;11.110;2024-01-11T01:15:24;-8.10;99.90
33739;DHT22;20063;51.730;11.110;2024-01-11T01:17:50;-8.10;99.90
33739;DHT22;20063;51.730;11.110;2024-01-11T01:20:15;-8.10;99.90
33739;DHT22;20063;51.730;11.110;2024-01-11T01:22:41;-8.10;99.90
33739;DHT22;20063;51.730;11.110;2024-01-11T01:25:07;-8.00;99.90
33739;DHT22;20063;51.730;11.110;2024-01-11T01:27:33;-8.00;99.90
33739;DHT22;20063;51.730;11.110;2024-01-11T01:29:58;-8.00;99.90
33739;DHT22;20063;51.730;11.110;2024-01-11T01:32:24;-8.10;99.90
33739;DHT22;20063;51.730;11.110;2024-01-11T01:34:49;-8.10;99.90
33739;DHT22;20063;51.730;11.110;2024-01-11T01:37:15;-8.10;99.90
33739;DHT22;20063;51.730;11.110;2024-01-11T01:39:41;-8.10;99.90
33739;DHT22;20063;51.730;11.110;2024-01-11T01:42:07;-8.10;99.90
33739;DHT22;20063;51.730;11.110;2024-01-11T01:44:33;-8.10;99.90
33739;DHT22;20063;51.730;11.110;2024-01-11T01:46:59;-8.00;99.90
33739;DHT22;20063;51.730;11.110;2024-01-11T01:49:25;-8.00;99.90
33739;DHT22;20063;51.730;11.110;2024-01-11T01:51:52;-8.00;99.90
33739;DHT22;20063;51.730;11.110;2024-01-11T01:54:19;-8.00;99.90
33739;DHT22;20063;51.730;11.110;2024-01-11T01:56:46;-8.10;99.90
33739;DHT22;20063;51.730;11.110;2024-01-11T01:59:15;-8.10;99.90
33739;DHT22;20063;51.730;11.110;2024-01-11T02:01:41;-8.10;99.90
33739;DHT22;20063;51.730;11.110;2024-01-11T02:04:07;-8.10;99.90
33739;DHT22;20063;51.730;11.110;2024-01-11T02:06:34;-8.10;99.90
33739;DHT22;20063;51.730;11.110;2024-01-11T02:09:00;-8.00;99.90
33739;DHT22;20063;51.730;11.110;2024-01-11T02:11:29;-7.90;99.90
33739;DHT22;20063;51.730;11.110;2024-01-11T02:13:55;-7.90;99.90
33739;DHT22;20063;51.730;11.110;2024-01-11T02:16:21;-7.90;99.90
33739;DHT22;20063;51.730;11.110;2024-01-11T02:18:46;-7.90;99.90
33739;DHT22;20063;51.730;11.110;2024-01-11T02:21:14;-7.80;99.90
33739;DHT22;20063;51.730;11.110;2024-01-11T02:23:52;-7.80;99.90
33739;DHT22;20063;51.730;11.110;2024-01-11T02:26:18;-7.80;99.90
33739;DHT22;20063;51.730;11.110;2024-01-11T02:28:44;-7.80;99.90
33739;DHT22;20063;51.730;11.110;2024-01-11T02:31:11;-7.80;99.90
33739;DHT22;20063;51.730;11.110;2024-01-11T02:33:38;-7.80;99.90
33739;DHT22;20063;51.730;11.110;2024-01-11T02:36:04;-7.90;99.90
33739;DHT22;20063;51.730;11.110;2024-01-11T02:38:31;-7.90;99.90
33739;DHT22;20063;51.730;11.110;2024-01-11T02:40:59;-7.90;99.90
33739;DHT22;20063;51.730;11.110;2024-01-11T02:43:25;-7.90;99.90
33739;DHT22;20063;51.730;11.110;2024-01-11T02:45:54;-7.90;99.90
33739;DHT22;20063;51.730;11.110;2024-01-11T02:48:20;-7.90;99.90
33739;DHT22;20063;51.730;11.110;2024-01-11T02:50:48;-7.90;99.90
33739;DHT22;20063;51.730;11.110;2024-01-11T02:53:14;-7.90;99.90
33739;DHT22;20063;51.730;11.110;2024-01-11T02:55:39;-7.80;99.90
33739;DHT22;20063;51.730;11.110;2024-01-11T02:58:05;-7.70;99.90
33739;DHT22;20063;51.730;11.110;2024-01-11T03:00:30;-7.80;99.90
33739;DHT22;20063;51.730;11.110;2024-01-11T03:02:56;-7.90;99.90
33739;DHT22;20063;51.730;11.110;2024-01-11T03:05:22;-7.90;99.90
33739;DHT22;20063;51.730;11.110;2024-01-11T03:07:47;-7.90;99.90
33739;DHT22;20063;51.730;11.110;2024-01-11T03:10:13;-7.90;99.90
33739;DHT22;20063;51.730;11.110;2024-01-11T03:16:00;-7.90;99.90
33739;DHT22;20063;51.730;11.110;2024-01-11T03:18:26;-7.90;99.90
33739;DHT22;20063;51.730;11.110;2024-01-11T03:20:51;-7.90;99.90
33739;DHT22;20063;51.730;11.110;2024-01-11T03:23:17;-7.90;99.90
33739;DHT22;20063;51.730;11.110;2024-01-11T03:25:42;-7.90;99.90
33739;DHT22;20063;51.730;11.110;2024-01-11T03:28:08;-7.90;99.90
33739;DHT22;20063;51.730;11.110;2024-01-11T03:30:34;-7.90;99.90
33739;DHT22;20063;51.730;11.110;2024-01-11T03:32:59;-7.90;99.90
33739;DHT22;20063;51.730;11.110;2024-01-11T03:35:25;-7.80;99.90
33739;DHT22;20063;51.730;11.110;2024-01-11T03:37:50;-7.80;99.90
33739;DHT22;20063;51.730;11.110;2024-01-11T03:40:17;-7.90;99.90
33739;DHT22;20063;51.730;11.110;2024-01-11T03:42:43;-7.90;99.90
33739;DHT22;20063;51.730;11.110;2024-01-11T03:45:09;-7.90;99.90
33739;DHT22;20063;51.730;11.110;2024-01-11T03:47:35;-7.80;99.90
33739;DHT22;20063;51.730;11.110;2024-01-11T03:50:01;-7.90;99.90
33739;DHT22;20063;51.730;11.110;2024-01-11T03:52:27;-7.90;99.90
33739;DHT22;20063;51.730;11.110;2024-01-11T03:54:52;-7.90;99.90
33739;DHT22;20063;51.730;11.110;2024-01-11T03:57:18;-7.80;99.90
33739;DHT22;20063;51.730;11.110;2024-01-11T03:59:44;-7.80;99.90
33739;DHT22;20063;51.730;11.110;2024-01-11T04:02:10;-7.80;99.90
33739;DHT22;20063;51.730;11.110;2024-01-11T04:04:35;-7.80;99.90
33739;DHT22;20063;51.730;11.110;2024-01-11T04:07:01;-7.80;99.90
33739;DHT22;20063;51.730;11.110;2024-01-11T04:09:28;-7.80;99.90
33739;DHT22;20063;51.730;11.110;2024-01-11T04:11:54;-7.80;99.90
33739;DHT22;20063;51.730;11.110;2024-01-11T04:14:19;-7.70;99.90
33739;DHT22;20063;51.730;11.110;2024-01-11T04:16:45;-7.80;99.90
33739;DHT22;20063;51.730;11.110;2024-01-11T04:19:11;-7.80;99.90
33739;DHT22;20063;51.730;11.110;2024-01-11T04:21:36;-7.70;99.90
33739;DHT22;20063;51.730;11.110;2024-01-11T04:24:05;-7.80;99.90
33739;DHT22;20063;51.730;11.110;2024-01-11T04:26:33;-7.80;99.90
33739;DHT22;20063;51.730;11.110;2024-01-11T04:28:59;-7.80;99.90
33739;DHT22;20063;51.730;11.110;2024-01-11T04:31:26;-7.80;99.90
33739;DHT22;20063;51.730;11.110;2024-01-11T04:33:52;-7.70;99.90
33739;DHT22;20063;51.730;11.110;2024-01-11T04:36:17;-7.80;99.90
33739;DHT22;20063;51.730;11.110;2024-01-11T04:38:43;-7.80;99.90
33739;DHT22;20063;51.730;11.110;2024-01-11T04:41:13;-7.80;99.90
33739;DHT22;20063;51.730;11.110;2024-01-11T04:43:40;-7.70;99.90
33739;DHT22;20063;51.730;11.110;2024-01-11T04:46:20;-7.80;99.90
33739;DHT22;20063;51.730;11.110;2024-01-11T04:48:46;-7.80;99.90
33739;DHT22;20063;51.730;11.110;2024-01-11T04:51:17;-7.80;99.90
33739;DHT22;20063;51.730;11.110;2024-01-11T04:53:44;-7.80;99.90
33739;DHT22;20063;51.730;11.110;2024-01-11T04:56:12;-7.80;99.90
33739;DHT22;20063;51.730;11.110;2024-01-11T04:58:40;-7.80;99.90
33739;DHT22;20063;51.730;11.110;2024-01-11T05:01:06;-7.80;99.90
33739;DHT22;20063;51.730;11.110;2024-01-11T05:03:33;-7.80;99.90
33739;DHT22;20063;51.730;11.110;2024-01-11T05:06:02;-7.80;99.90
33739;DHT22;20063;51.730;11.110;2024-01-11T05:08:29;-7.80;99.90
33739;DHT22;20063;51.730;11.110;2024-01-11T05:10:54;-7.70;99.90
33739;DHT22;20063;51.730;11.110;2024-01-11T05:13:20;-7.70;99.90
33739;DHT22;20063;51.730;11.110;2024-01-11T05:15:46;-7.70;99.90
33739;DHT22;20063;51.730;11.110;2024-01-11T05:18:13;-7.70;99.90
33739;DHT22;20063;51.730;11.110;2024-01-11T05:20:39;-7.70;99.90
33739;DHT22;20063;51.730;11.110;2024-01-11T05:23:05;-7.70;99.90
33739;DHT22;20063;51.730;11.110;2024-01-11T05:25:31;-7.70;99.90
33739;DHT22;20063;51.730;11.110;2024-01-11T05:28:00;-7.70;99.90
33739;DHT22;20063;51.730;11.110;2024-01-11T05:30:26;-7.60;99.90
33739;DHT22;20063;51.730;11.110;2024-01-11T05:32:53;-7.70;99.90
33739;DHT22;20063;51.730;11.110;2024-01-11T05:35:19;-7.60;99.90
33739;DHT22;20063;51.730;11.110;2024-01-11T05:37:44;-7.60;99.90
33739;DHT22;20063;51.730;11.110;2024-01-11T05:40:10;-7.70;99.90
33739;DHT22;20063;51.730;11.110;2024-01-11T05:42:36;-7.70;99.90
33739;DHT22;20063;51.730;11.110;2024-01-11T05:45:04;-7.70;99.90
33739;DHT22;20063;51.730;11.110;2024-01-11T05:47:30;-7.60;99.90
33739;DHT22;20063;51.730;11.110;2024-01-11T05:49:55;-7.60;99.90
33739;DHT22;20063;51.730;11.110;2024-01-11T05:52:21;-7.60;99.90
33739;DHT22;20063;51.730;11.110;2024-01-11T05:54:47;-7.60;99.90
33739;DHT22;20063;51.730;11.110;2024-01-11T05:57:12;-7.60;99.90
33739;DHT22;20063;51.730;11.110;2024-01-11T05:59:44;-7.50;99.90
33739;DHT22;20063;51.730;11.110;2024-01-11T06:02:11;-7.50;99.90
33739;DHT22;20063;51.730;11.110;2024-01-11T06:04:36;-7.50;99.90
33739;DHT22;20063;51.730;11.110;2024-01-11T06:07:02;-7.40;99.90
33739;DHT22;20063;51.730;11.110;2024-01-11T06:09:28;-7.40;99.90
33739;DHT22;20063;51.730;11.110;2024-01-11T06:11:53;-7.40;99.90
33739;DHT22;20063;51.730;11.110;2024-01-11T06:14:20;-7.40;99.90
33739;DHT22;20063;51.730;11.110;2024-01-11T06:16:45;-7.40;99.90
33739;DHT22;20063;51.730;11.110;2024-01-11T06:19:11;-7.40;99.90
33739;DHT22;20063;51.730;11.110;2024-01-11T06:21:36;-7.40;99.90
33739;DHT22;20063;51.730;11.110;2024-01-11T06:24:03;-7.40;99.90
33739;DHT22;20063;51.730;11.110;2024-01-11T06:26:29;-7.40;99.90
33739;DHT22;20063;51.730;11.110;2024-01-11T06:28:55;-7.30;99.90
33739;DHT22;20063;51.730;11.110;2024-01-11T06:31:21;-7.40;99.90
33739;DHT22;20063;51.730;11.110;2024-01-11T06:33:49;-7.30;99.90
33739;DHT22;20063;51.730;11.110;2024-01-11T06:36:15;-7.30;99.90
33739;DHT22;20063;51.730;11.110;2024-01-11T06:38:41;-7.30;99.90
33739;DHT22;20063;51.730;11.110;2024-01-11T06:41:07;-7.20;99.90
33739;DHT22;20063;51.730;11.110;2024-01-11T06:43:33;-7.20;99.90
33739;DHT22;20063;51.730;11.110;2024-01-11T06:46:03;-7.20;99.90
33739;DHT22;20063;51.730;11.110;2024-01-11T06:48:29;-7.20;99.90
33739;DHT22;20063;51.730;11.110;2024-01-11T06:50:55;-7.20;99.90
33739;DHT22;20063;51.730;11.110;2024-01-11T06:53:20;-7.10;99.90
33739;DHT22;20063;51.730;11.110;2024-01-11T06:55:46;-7.10;99.90
33739;DHT22;20063;51.730;11.110;2024-01-11T06:58:13;-7.10;99.90
33739;DHT22;20063;51.730;11.110;2024-01-11T07:00:38;-7.10;99.90
33739;DHT22;20063;51.730;11.110;2024-01-11T07:03:09;-7.10;99.90
33739;DHT22;20063;51.730;11.110;2024-01-11T07:05:36;-7.10;99.90
33739;DHT22;20063;51.730;11.110;2024-01-11T07:08:01;-7.00;99.90
33739;DHT22;20063;51.730;11.110;2024-01-11T07:10:27;-7.00;99.90
33739;DHT22;20063;51.730;11.110;2024-01-11T07:12:52;-7.00;99.90
33739;DHT22;20063;51.730;11.110;2024-01-11T07:15:18;-6.90;99.90
33739;DHT22;20063;51.730;11.110;2024-01-11T07:17:44;-6.90;99.90
33739;DHT22;20063;51.730;11.110;2024-01-11T07:20:09;-6.80;99.90
33739;DHT22;20063;51.730;11.110;2024-01-11T07:22:35;-6.90;99.90
33739;DHT22;20063;51.730;11.110;2024-01-11T07:25:01;-6.90;99.90
33739;DHT22;20063;51.730;11.110;2024-01-11T07:27:26;-6.90;99.90
33739;DHT22;20063;51.730;11.110;2024-01-11T07:29:52;-6.90;99.90
33739;DHT22;20063;51.730;11.110;2024-01-11T07:32:18;-7.00;99.90
33739;DHT22;20063;51.730;11.110;2024-01-11T07:34:43;-6.90;99.90
33739;DHT22;20063;51.730;11.110;2024-01-11T07:37:09;-6.90;99.90
33739;DHT22;20063;51.730;11.110;2024-01-11T07:39:34;-6.90;99.90
33739;DHT22;20063;51.730;11.110;2024-01-11T07:42:04;-6.90;99.90
33739;DHT22;20063;51.730;11.110;2024-01-11T07:44:30;-6.90;99.90
33739;DHT22;20063;51.730;11.110;2024-01-11T07:46:56;-6.90;99.90
33739;DHT22;20063;51.730;11.110;2024-01-11T07:49:24;-6.90;99.90
33739;DHT22;20063;51.730;11.110;2024-01-11T07:51:50;-6.90;99.90
33739;DHT22;20063;51.730;11.110;2024-01-11T07:54:16;-6.80;99.90
33739;DHT22;20063;51.730;11.110;2024-01-11T07:56:42;-6.90;99.90
33739;DHT22;20063;51.730;11.110;2024-01-11T07:59:08;-6.80;99.90
33739;DHT22;20063;51.730;11.110;2024-01-11T08:01:35;-6.80;99.90
33739;DHT22;20063;51.730;11.110;2024-01-11T08:04:01;-6.80;99.90
33739;DHT22;20063;51.730;11.110;2024-01-11T08:06:28;-6.70;99.90
33739;DHT22;20063;51.730;11.110;2024-01-11T08:08:53;-6.60;99.90
33739;DHT22;20063;51.730;11.110;2024-01-11T08:11:19;-6.60;99.90
33739;DHT22;20063;51.730;11.110;2024-01-11T08:13:45;-6.50;99.90
33739;DHT22;20063;51.730;11.110;2024-01-11T08:16:16;-6.40;99.90
33739;DHT22;20063;51.730;11.110;2024-01-11T08:18:43;-6.40;99.90
33739;DHT22;20063;51.730;11.110;2024-01-11T08:21:09;-6.30;99.90
33739;DHT22;20063;51.730;11.110;2024-01-11T08:23:43;-6.30;99.90
33739;DHT22;20063;51.730;11.110;2024-01-11T08:26:14;-6.30;99.90
33739;DHT22;20063;51.730;11.110;2024-01-11T08:28:40;-6.30;99.90
33739;DHT22;20063;51.730;11.110;2024-01-11T08:31:07;-6.20;99.90
33739;DHT22;20063;51.730;11.110;2024-01-11T08:33:39;-6.20;99.90
33739;DHT22;20063;51.730;11.110;2024-01-11T08:36:05;-6.20;99.90
33739;DHT22;20063;51.730;11.110;2024-01-11T08:38:32;-6.20;99.90
33739;DHT22;20063;51.730;11.110;2024-01-11T08:40:58;-6.10;99.90
33739;DHT22;20063;51.730;11.110;2024-01-11T08:43:24;-6.10;99.90
33739;DHT22;20063;51.730;11.110;2024-01-11T08:45:50;-6.10;99.90
33739;DHT22;20063;51.730;11.110;2024-01-11T08:48:18;-6.10;99.90
33739;DHT22;20063;51.730;11.110;2024-01-11T08:50:44;-6.00;99.90
33739;DHT22;20063;51.730;11.110;2024-01-11T08:53:09;-6.00;99.90
33739;DHT22;20063;51.730;11.110;2024-01-11T08:55:35;-6.00;99.90
33739;DHT22;20063;51.730;11.110;2024-01-11T08:58:01;-5.90;99.90
33739;DHT22;20063;51.730;11.110;2024-01-11T09:00:30;-5.90;99.90
33739;DHT22;20063;51.730;11.110;2024-01-11T09:02:55;-5.80;99.90
33739;DHT22;20063;51.730;11.110;2024-01-11T09:05:21;-5.70;99.90
33739;DHT22;20063;51.730;11.110;2024-01-11T09:07:47;-5.70;99.90
33739;DHT22;20063;51.730;11.110;2024-01-11T09:10:12;-5.60;99.90
33739;DHT22;20063;51.730;11.110;2024-01-11T09:12:38;-5.60;99.90
33739;DHT22;20063;51.730;11.110;2024-01-11T09:15:04;-5.60;99.90
33739;DHT22;20063;51.730;11.110;2024-01-11T09:17:30;-5.50;99.90
33739;DHT22;20063;51.730;11.110;2024-01-11T09:19:56;-5.50;99.90
33739;DHT22;20063;51.730;11.110;2024-01-11T09:22:21;-5.40;99.90
33739;DHT22;20063;51.730;11.110;2024-01-11T09:24:48;-5.20;99.90
33739;DHT22;20063;51.730;11.110;2024-01-11T09:27:13;-5.30;99.90
33739;DHT22;20063;51.730;11.110;2024-01-11T09:29:43;-5.20;99.90
33739;DHT22;20063;51.730;11.110;2024-01-11T09:32:09;-5.20;99.90
33739;DHT22;20063;51.730;11.110;2024-01-11T09:34:35;-5.10;99.90
33739;DHT22;20063;51.730;11.110;2024-01-11T09:37:01;-5.00;99.90
33739;DHT22;20063;51.730;11.110;2024-01-11T09:39:26;-5.00;99.90
33739;DHT22;20063;51.730;11.110;2024-01-11T09:42:06;-5.00;99.90
33739;DHT22;20063;51.730;11.110;2024-01-11T09:44:36;-4.90;99.90
33739;DHT22;20063;51.730;11.110;2024-01-11T09:47:04;-4.80;99.90
33739;DHT22;20063;51.730;11.110;2024-01-11T09:49:31;-4.80;99.90
33739;DHT22;20063;51.730;11.110;2024-01-11T09:51:59;-4.80;99.90
33739;DHT22;20063;51.730;11.110;2024-01-11T09:54:27;-4.70;99.90
33739;DHT22;20063;51.730;11.110;2024-01-11T09:56:54;-4.70;99.90
33739;DHT22;20063;51.730;11.110;2024-01-11T09:59:20;-4.60;99.90
33739;DHT22;20063;51.730;11.110;2024-01-11T10:01:49;-4.60;99.90
33739;DHT22;20063;51.730;11.110;2024-01-11T10:04:16;-4.60;99.90
33739;DHT22;20063;51.730;11.110;2024-01-11T10:06:42;-4.50;99.90
33739;DHT22;20063;51.730;11.110;2024-01-11T10:09:08;-4.50;99.90
33739;DHT22;20063;51.730;11.110;2024-01-11T10:11:33;-4.40;99.90
33739;DHT22;20063;51.730;11.110;2024-01-11T10:14:00;-4.40;99.90
33739;DHT22;20063;51.730;11.110;2024-01-11T10:16:28;-4.40;99.90
33739;DHT22;20063;51.730;11.110;2024-01-11T10:18:54;-4.30;99.90
33739;DHT22;20063;51.730;11.110;2024-01-11T10:21:21;-4.20;99.90
33739;DHT22;20063;51.730;11.110;2024-01-11T10:23:46;-4.20;99.90
33739;DHT22;20063;51.730;11.110;2024-01-11T10:26:17;-4.10;99.90
33739;DHT22;20063;51.730;11.110;2024-01-11T10:28:46;-3.90;99.90
33739;DHT22;20063;51.730;11.110;2024-01-11T10:31:13;-3.70;99.90
33739;DHT22;20063;51.730;11.110;2024-01-11T10:33:43;-3.60;99.90
33739;DHT22;20063;51.730;11.110;2024-01-11T10:36:12;-3.50;99.90
33739;DHT22;20063;51.730;11.110;2024-01-11T10:38:39;-3.40;99.90
33739;DHT22;20063;51.730;11.110;2024-01-11T10:41:06;-3.40;99.90
33739;DHT22;20063;51.730;11.110;2024-01-11T10:43:32;-3.40;99.90
33739;DHT22;20063;51.730;11.110;2024-01-11T10:46:02;-3.30;99.90
33739;DHT22;20063;51.730;11.110;2024-01-11T10:48:31;-3.20;99.90
33739;DHT22;20063;51.730;11.110;2024-01-11T10:51:01;-3.20;99.90
33739;DHT22;20063;51.730;11.110;2024-01-11T10:53:46;-3.10;99.90
33739;DHT22;20063;51.730;11.110;2024-01-11T10:56:19;-3.00;99.90
33739;DHT22;20063;51.730;11.110;2024-01-11T10:58:45;-3.00;99.90
33739;DHT22;20063;51.730;11.110;2024-01-11T11:01:13;-3.00;99.90
33739;DHT22;20063;51.730;11.110;2024-01-11T11:03:43;-3.10;99.90
33739;DHT22;20063;51.730;11.110;2024-01-11T11:06:11;-3.10;99.90
33739;DHT22;20063;51.730;11.110;2024-01-11T11:08:37;-3.20;99.90
33739;DHT22;20063;51.730;11.110;2024-01-11T11:11:04;-3.10;99.90
33739;DHT22;20063;51.730;11.110;2024-01-11T11:13:32;-3.10;99.90
33739;DHT22;20063;51.730;11.110;2024-01-11T11:15:58;-3.00;99.90
33739;DHT22;20063;51.730;11.110;2024-01-11T11:18:24;-3.00;99.90
33739;DHT22;20063;51.730;11.110;2024-01-11T11:20:50;-2.90;99.90
33739;DHT22;20063;51.730;11.110;2024-01-11T11:23:19;-2.90;99.90
33739;DHT22;20063;51.730;11.110;2024-01-11T11:25:46;-2.90;99.90
33739;DHT22;20063;51.730;11.110;2024-01-11T11:28:14;-2.80;99.90
33739;DHT22;20063;51.730;11.110;2024-01-11T11:30:41;-2.60;99.90
33739;DHT22;20063;51.730;11.110;2024-01-11T11:35:35;-2.40;99.90
33739;DHT22;20063;51.730;11.110;2024-01-11T11:38:01;-2.30;99.90
33739;DHT22;20063;51.730;11.110;2024-01-11T11:40:39;-2.20;99.90
33739;DHT22;20063;51.730;11.110;2024-01-11T11:43:06;-2.20;99.90
33739;DHT22;20063;51.730;11.110;2024-01-11T11:45:33;-2.20;99.90
33739;DHT22;20063;51.730;11.110;2024-01-11T11:47:58;-2.20;99.90
33739;DHT22;20063;51.730;11.110;2024-01-11T11:50:24;-2.20;99.90
33739;DHT22;20063;51.730;11.110;2024-01-11T11:52:56;-2.10;99.90
33739;DHT22;20063;51.730;11.110;2024-01-11T11:55:25;-2.00;99.90
33739;DHT22;20063;51.730;11.110;2024-01-11T11:57:52;-1.90;99.90
33739;DHT22;20063;51.730;11.110;2024-01-11T12:00:20;-1.80;99.90
33739;DHT22;20063;51.730;11.110;2024-01-11T12:02:47;-1.70;99.90
33739;DHT22;20063;51.730;11.110;2024-01-11T12:05:13;-1.80;99.90
33739;DHT22;20063;51.730;11.110;2024-01-11T12:07:38;-1.80;99.90
33739;DHT22;20063;51.730;11.110;2024-01-11T12:10:05;-1.90;99.90
33739;DHT22;20063;51.730;11.110;2024-01-11T12:12:33;-1.90;99.90
33739;DHT22;20063;51.730;11.110;2024-01-11T12:14:59;-2.00;99.90
33739;DHT22;20063;51.730;11.110;2024-01-11T12:17:24;-2.00;99.90
33739;DHT22;20063;51.730;11.110;2024-01-11T12:19:51;-2.00;99.90
33739;DHT22;20063;51.730;11.110;2024-01-11T12:22:18;-1.90;99.90
33739;DHT22;20063;51.730;11.110;2024-01-11T12:24:45;-1.90;99.90
33739;DHT22;20063;51.730;11.110;2024-01-11T12:27:11;-2.00;99.90
33739;DHT22;20063;51.730;11.110;2024-01-11T12:29:39;-2.00;99.90
33739;DHT22;20063;51.730;11.110;2024-01-11T12:32:04;-2.10;99.90
33739;DHT22;20063;51.730;11.110;2024-01-11T12:34:30;-2.10;99.90
33739;DHT22;20063;51.730;11.110;2024-01-11T12:36:56;-2.10;99.90
33739;DHT22;20063;51.730;11.110;2024-01-11T12:39:26;-2.00;99.90
33739;DHT22;20063;51.730;11.110;2024-01-11T12:41:54;-2.00;99.90
33739;DHT22;20063;51.730;11.110;2024-01-11T12:44:20;-1.90;99.90
33739;DHT22;20063;51.730;11.110;2024-01-11T12:46:49;-1.80;99.90
33739;DHT22;20063;51.730;11.110;2024-01-11T12:49:15;-1.80;99.90
33739;DHT22;20063;51.730;11.110;2024-01-11T12:51:41;-1.90;99.90
33739;DHT22;20063;51.730;11.110;2024-01-11T12:54:13;-1.90;99.90
33739;DHT22;20063;51.730;11.110;2024-01-11T12:56:42;-1.80;99.90
33739;DHT22;20063;51.730;11.110;2024-01-11T12:59:09;-1.80;99.90
33739;DHT22;20063;51.730;11.110;2024-01-11T13:01:36;-1.80;99.90
33739;DHT22;20063;51.730;11.110;2024-01-11T13:04:01;-1.80;99.90
33739;DHT22;20063;51.730;11.110;2024-01-11T13:06:32;-1.70;99.90
33739;DHT22;20063;51.730;11.110;2024-01-11T13:08:58;-1.70;99.90
33739;DHT22;20063;51.730;11.110;2024-01-11T13:11:23;-1.70;99.90
33739;DHT22;20063;51.730;11.110;2024-01-11T13:13:50;-1.70;99.90
33739;DHT22;20063;51.730;11.110;2024-01-11T13:16:17;-1.70;99.90
33739;DHT22;20063;51.730;11.110;2024-01-11T13:18:47;-1.70;99.90
33739;DHT22;20063;51.730;11.110;2024-01-11T13:21:12;-1.70;99.90
33739;DHT22;20063;51.730;11.110;2024-01-11T13:23:42;-1.70;99.90
33739;DHT22;20063;51.730;11.110;2024-01-11T13:26:07;-1.70;99.90
33739;DHT22;20063;51.730;11.110;2024-01-11T13:28:34;-1.70;99.90
33739;DHT22;20063;51.730;11.110;2024-01-11T13:30:59;-1.70;99.90
33739;DHT22;20063;51.730;11.110;2024-01-11T13:33:25;-1.80;99.90
33739;DHT22;20063;51.730;11.110;2024-01-11T13:35:51;-1.80;99.90
33739;DHT22;20063;51.730;11.110;2024-01-11T13:38:17;-1.80;99.90
33739;DHT22;20063;51.730;11.110;2024-01-11T13:40:43;-1.90;99.90
33739;DHT22;20063;51.730;11.110;2024-01-11T13:43:09;-1.90;99.90
33739;DHT22;20063;51.730;11.110;2024-01-11T13:45:35;-1.90;99.90
33739;DHT22;20063;51.730;11.110;2024-01-11T13:48:03;-2.00;99.90
33739;DHT22;20063;51.730;11.110;2024-01-11T13:50:29;-2.00;99.90
33739;DHT22;20063;51.730;11.110;2024-01-11T13:52:55;-2.00;99.90
33739;DHT22;20063;51.730;11.110;2024-01-11T13:55:21;-2.00;99.90
33739;DHT22;20063;51.730;11.110;2024-01-11T13:57:51;-2.10;99.90
33739;DHT22;20063;51.730;11.110;2024-01-11T14:00:17;-2.10;99.90
33739;DHT22;20063;51.730;11.110;2024-01-11T14:02:46;-2.00;99.90
33739;DHT22;20063;51.730;11.110;2024-01-11T14:05:13;-2.00;99.90
33739;DHT22;20063;51.730;11.110;2024-01-11T14:07:41;-2.00;99.90
33739;DHT22;20063;51.730;11.110;2024-01-11T14:10:07;-2.10;99.90
33739;DHT22;20063;51.730;11.110;2024-01-11T14:12:37;-2.10;99.90
33739;DHT22;20063;51.730;11.110;2024-01-11T14:15:04;-2.10;99.90
33739;DHT22;20063;51.730;11.110;2024-01-11T14:17:31;-2.10;99.90
33739;DHT22;20063;51.730;11.110;2024-01-11T14:19:57;-2.10;99.90
33739;DHT22;20063;51.730;11.110;2024-01-11T14:22:24;-2.00;99.90
33739;DHT22;20063;51.730;11.110;2024-01-11T14:24:50;-2.00;99.90
33739;DHT22;20063;51.730;11.110;2024-01-11T14:27:16;-2.00;99.90
33739;DHT22;20063;51.730;11.110;2024-01-11T14:29:45;-1.90;99.90
33739;DHT22;20063;51.730;11.110;2024-01-11T14:32:10;-2.00;99.90
33739;DHT22;20063;51.730;11.110;2024-01-11T14:34:36;-1.90;99.90
33739;DHT22;20063;51.730;11.110;2024-01-11T14:37:02;-1.80;99.90
33739;DHT22;20063;51.730;11.110;2024-01-11T14:39:27;-1.80;99.90
33739;DHT22;20063;51.730;11.110;2024-01-11T14:41:53;-1.80;99.90
33739;DHT22;20063;51.730;11.110;2024-01-11T14:44:19;-1.80;99.90
33739;DHT22;20063;51.730;11.110;2024-01-11T14:46:44;-1.80;99.90
33739;DHT22;20063;51.730;11.110;2024-01-11T14:49:10;-1.70;99.90
33739;DHT22;20063;51.730;11.110;2024-01-11T14:51:36;-1.70;99.90
33739;DHT22;20063;51.730;11.110;2024-01-11T14:54:03;-1.60;99.90
33739;DHT22;20063;51.730;11.110;2024-01-11T14:56:33;-1.60;99.90
33739;DHT22;20063;51.730;11.110;2024-01-11T14:59:01;-1.60;99.90
33739;DHT22;20063;51.730;11.110;2024-01-11T15:01:27;-1.50;99.90
33739;DHT22;20063;51.730;11.110;2024-01-11T15:03:52;-1.50;99.90
33739;DHT22;20063;51.730;11.110;2024-01-11T15:06:19;-1.40;99.90
33739;DHT22;20063;51.730;11.110;2024-01-11T15:08:44;-1.40;99.90
33739;DHT22;20063;51.730;11.110;2024-01-11T15:11:10;-1.40;99.90
33739;DHT22;20063;51.730;11.110;2024-01-11T15:13:35;-1.30;99.90
33739;DHT22;20063;51.730;11.110;2024-01-11T15:16:01;-1.30;99.90
33739;DHT22;20063;51.730;11.110;2024-01-11T15:18:27;-1.30;99.90